createdAt,value
2022-09-20T00:01:44.355Z,101812.59
2022-09-20T00:04:10.086Z,101806.75
2022-09-20T00:06:35.874Z,101805.94
2022-09-20T00:09:02.509Z,101809.00
2022-09-20T00:11:29.727Z,101802.34
2022-09-20T00:13:56.495Z,101801.50
2022-09-20T00:16:23.965Z,101807.88
2022-09-20T00:18:50.312Z,101811.22
2022-09-20T00:21:17.071Z,101818.13
2022-09-20T00:23:42.881Z,101805.09
2022-09-20T00:26:08.466Z,101805.41
2022-09-20T00:28:34.142Z,101805.09
2022-09-20T00:30:59.960Z,101814.25
2022-09-20T00:33:45.551Z,101816.47
2022-09-20T00:36:11.449Z,101814.25
2022-09-20T00:38:37.023Z,101819.78
2022-09-20T00:41:02.648Z,101809.81
2022-09-20T00:43:44.768Z,101810.09
2022-09-20T00:46:17.147Z,101810.94
2022-09-20T00:48:43.103Z,101811.75
2022-09-20T00:51:09.863Z,101818.41
2022-09-20T00:53:37.676Z,101815.91
2022-09-20T00:56:04.789Z,101819.25
2022-09-20T00:58:30.955Z,101810.34
2022-09-20T01:00:56.640Z,101809.00
2022-09-20T01:03:22.395Z,101811.22
2022-09-20T01:05:48.324Z,101814.53
2022-09-20T01:08:13.898Z,101810.94
2022-09-20T01:10:39.503Z,101806.50
2022-09-20T01:13:05.157Z,101808.44
2022-09-20T01:15:30.783Z,101802.91
2022-09-20T01:17:56.704Z,101810.34
2022-09-20T01:20:26.795Z,101805.69
2022-09-20T01:22:56.902Z,101808.16
2022-09-20T01:25:25.406Z,101805.41
2022-09-20T01:27:51.515Z,101800.69
2022-09-20T01:30:25.888Z,101814.81
2022-09-20T01:32:56.407Z,101807.34
2022-09-20T01:35:22.456Z,101808.16
2022-09-20T01:38:07.995Z,101804.00
2022-09-20T01:40:53.552Z,101811.22
2022-09-20T01:43:25.043Z,101814.00
2022-09-20T01:45:50.683Z,101811.22
2022-09-20T01:48:21.063Z,101808.44
2022-09-20T01:51:06.616Z,101814.00
2022-09-20T01:53:38.243Z,101815.91
2022-09-20T01:56:09.779Z,101816.75
2022-09-20T01:59:19.465Z,101821.44
2022-09-20T02:02:00.893Z,101816.75
2022-09-20T02:04:46.465Z,101821.44
2022-09-20T02:07:32.006Z,101819.53
2022-09-20T02:10:06.845Z,101820.88
2022-09-20T02:12:38.204Z,101830.84
2022-09-20T02:15:23.756Z,101822.53
2022-09-20T02:18:09.508Z,101821.72
2022-09-20T02:20:53.163Z,101819.22
2022-09-20T02:23:38.698Z,101819.78
2022-09-20T02:26:10.308Z,101820.06
2022-09-20T02:28:55.847Z,101814.25
2022-09-20T02:31:27.832Z,101817.00
2022-09-20T02:34:04.346Z,101811.47
2022-09-20T02:36:39.108Z,101808.16
2022-09-20T02:39:20.715Z,101807.03
2022-09-20T02:41:51.023Z,101807.03
2022-09-20T02:44:25.802Z,101807.03
2022-09-20T02:47:01.468Z,101810.63
2022-09-20T02:49:47.025Z,101802.63
2022-09-20T02:52:32.581Z,101810.63
2022-09-20T02:55:07.163Z,101806.22
2022-09-20T02:57:35.972Z,101810.09
2022-09-20T03:00:05.259Z,101798.72
2022-09-20T03:05:13.960Z,101803.69
2022-09-20T03:07:43.371Z,101797.06
2022-09-20T03:10:28.922Z,101799.84
2022-09-20T03:12:58.543Z,101801.78
2022-09-20T03:15:40.228Z,101795.13
2022-09-20T03:18:07.735Z,101799.84
2022-09-20T03:20:53.280Z,101801.78
2022-09-20T03:23:23.146Z,101799.00
2022-09-20T03:26:08.704Z,101795.38
2022-09-20T03:28:45.807Z,101792.38
2022-09-20T03:31:16.369Z,101794.56
2022-09-20T03:33:54.803Z,101797.91
2022-09-20T03:36:40.348Z,101800.09
2022-09-20T03:39:13.647Z,101806.47
2022-09-20T03:41:41.986Z,101808.16
2022-09-20T03:44:26.608Z,101801.50
2022-09-20T03:46:56.454Z,101794.56
2022-09-20T03:49:42.035Z,101804.81
2022-09-20T03:52:27.697Z,101802.03
2022-09-20T03:54:57.643Z,101804.56
2022-09-20T03:57:43.185Z,101807.56
2022-09-20T04:00:28.747Z,101808.41
2022-09-20T04:02:58.620Z,101814.78
2022-09-20T04:05:44.881Z,101816.72
2022-09-20T04:08:15.640Z,101818.41
2022-09-20T04:11:02.311Z,101812.28
2022-09-20T04:13:33.918Z,101813.94
2022-09-20T04:16:19.659Z,101817.81
2022-09-20T04:18:48.612Z,101817.53
2022-09-20T04:21:24.403Z,101817.81
2022-09-20T04:24:09.946Z,101803.69
2022-09-20T04:26:37.212Z,101811.47
2022-09-20T04:29:22.756Z,101815.88
2022-09-20T04:31:53.957Z,101808.69
2022-09-20T04:34:44.920Z,101805.63
2022-09-20T04:37:22.208Z,101805.63
2022-09-20T04:39:50.248Z,101808.41
2022-09-20T04:42:23.488Z,101823.38
2022-09-20T04:45:09.032Z,101815.06
2022-09-20T04:47:54.795Z,101816.16
2022-09-20T04:50:40.366Z,101818.13
2022-09-20T04:53:18.192Z,101822.00
2022-09-20T04:55:45.685Z,101829.44
2022-09-20T04:58:13.943Z,101827.53
2022-09-20T05:01:00.179Z,101826.66
2022-09-20T05:03:45.773Z,101826.66
2022-09-20T05:06:31.320Z,101833.06
2022-09-20T05:09:16.852Z,101833.91
2022-09-20T05:11:46.525Z,101832.22
2022-09-20T05:14:22.090Z,101837.75
2022-09-20T05:16:57.365Z,101838.63
2022-09-20T05:19:42.308Z,101834.97
2022-09-20T05:22:11.593Z,101841.63
2022-09-20T05:24:42.511Z,101840.28
2022-09-20T05:27:28.423Z,101852.19
2022-09-20T05:30:03.142Z,101841.09
2022-09-20T05:32:37.145Z,101840.53
2022-09-20T05:35:22.691Z,101840.28
2022-09-20T05:37:50.092Z,101848.41
2022-09-20T05:40:31.809Z,101862.09
2022-09-20T05:43:13.319Z,101857.13
2022-09-20T05:45:58.974Z,101853.00
2022-09-20T05:48:31.324Z,101860.19
2022-09-20T05:51:03.090Z,101858.00
2022-09-20T05:53:50.048Z,101859.66
2022-09-20T05:56:35.637Z,101865.19
2022-09-20T06:02:12.728Z,101865.75
2022-09-20T06:04:42.267Z,101861.31
2022-09-20T06:07:14.756Z,101860.78
2022-09-20T06:10:00.583Z,101867.97
2022-09-20T06:12:44.598Z,101871.56
2022-09-20T06:15:14.955Z,101870.44
2022-09-20T06:17:43.224Z,101867.16
2022-09-20T06:20:12.498Z,101870.47
2022-09-20T06:22:39.547Z,101874.63
2022-09-20T06:25:11.799Z,101874.34
2022-09-20T06:27:39.093Z,101869.91
2022-09-20T06:30:05.657Z,101869.06
2022-09-20T06:32:31.483Z,101873.50
2022-09-20T06:34:57.416Z,101873.50
2022-09-20T06:37:48.638Z,101867.69
2022-09-20T06:40:51.310Z,101874.06
2022-09-20T06:43:18.491Z,101878.78
2022-09-20T06:45:44.483Z,101874.94
2022-09-20T06:48:12.371Z,101872.41
2022-09-20T06:50:38.479Z,101882.66
2022-09-20T06:53:04.872Z,101881.28
2022-09-20T06:55:31.635Z,101879.59
2022-09-20T06:57:57.209Z,101880.47
2022-09-20T07:00:22.836Z,101892.38
2022-09-20T07:02:48.479Z,101889.72
2022-09-20T07:05:15.347Z,101884.28
2022-09-20T07:07:43.120Z,101892.81
2022-09-20T07:10:10.700Z,101889.81
2022-09-20T07:12:36.464Z,101896.50
2022-09-20T07:15:41.859Z,101904.00
2022-09-20T07:18:47.243Z,101900.09
2022-09-20T07:21:52.667Z,101909.81
2022-09-20T07:24:58.360Z,101899.81
2022-09-20T07:28:04.350Z,101904.28
2022-09-20T07:31:10.572Z,101911.47
2022-09-20T07:40:41.852Z,101897.09
2022-09-20T07:43:47.835Z,101898.75
2022-09-20T07:53:19.135Z,101897.63
2022-09-20T07:56:25.118Z,101905.66
2022-09-20T08:09:02.782Z,101917.88
2022-09-20T08:25:14.872Z,101928.34
2022-09-20T08:28:20.870Z,101931.41
2022-09-20T08:41:44.406Z,101933.50
2022-09-20T08:54:49.619Z,101942.22
2022-09-20T08:57:58.416Z,101941.41
2022-09-20T09:07:37.495Z,101939.72
2022-09-20T09:10:49.023Z,101940.81
2022-09-20T09:20:28.911Z,101945.03
2022-09-20T09:23:37.743Z,101946.69
2022-09-20T09:32:36.700Z,101933.69
2022-09-20T09:35:22.135Z,101936.09
2022-09-20T09:37:56.264Z,101937.63
2022-09-20T09:40:21.988Z,101930.25
2022-09-20T09:42:49.343Z,101932.50
2022-09-20T09:45:25.978Z,101939.41
2022-09-20T09:47:51.852Z,101932.50
2022-09-20T09:50:21.380Z,101923.41
2022-09-20T09:53:04.878Z,101931.16
2022-09-20T09:55:34.407Z,101921.72
2022-09-20T09:58:03.311Z,101928.38
2022-09-20T10:00:28.920Z,101935.31
2022-09-20T10:03:12.720Z,101935.31
2022-09-20T10:05:57.711Z,101938.34
2022-09-20T10:11:07.213Z,101939.19
2022-09-20T10:13:43.456Z,101943.91
2022-09-20T10:16:13.873Z,101938.91
2022-09-20T10:18:59.357Z,101947.50
2022-09-20T10:21:30.783Z,101945.28
2022-09-20T10:24:03.694Z,101961.34
2022-09-20T10:26:38.699Z,101957.75
2022-09-20T10:29:07.867Z,101958.59
2022-09-20T10:31:46.522Z,101959.13
2022-09-20T10:34:16.598Z,101949.72
2022-09-20T10:36:45.207Z,101953.06
2022-09-20T10:39:13.113Z,101958.28
2022-09-20T10:42:04.886Z,101961.06
2022-09-20T10:44:34.230Z,101956.09
2022-09-20T10:47:19.496Z,101960.53
2022-09-20T10:49:59.775Z,101949.44
2022-09-20T10:52:45.195Z,101954.69
2022-09-20T10:55:19.561Z,101955.81
2022-09-20T10:57:51.726Z,101954.16
2022-09-20T11:00:25.503Z,101955.25
2022-09-20T11:02:55.199Z,101959.69
2022-09-20T11:05:40.143Z,101957.75
2022-09-20T11:08:11.131Z,101956.09
2022-09-20T11:10:56.559Z,101967.44
2022-09-20T11:13:42.043Z,101960.50
2022-09-20T11:16:13.444Z,101954.69
2022-09-20T11:18:44.141Z,101956.09
2022-09-20T11:21:18.001Z,101963.84
2022-09-20T11:24:01.878Z,101959.41
2022-09-20T11:26:30.535Z,101953.03
2022-09-20T11:28:58.500Z,101955.53
2022-09-20T11:31:29.596Z,101960.50
2022-09-20T11:33:58.451Z,101964.94
2022-09-20T11:36:30.110Z,101960.81
2022-09-20T11:38:56.988Z,101966.91
2022-09-20T11:41:25.576Z,101966.91
2022-09-20T11:43:51.114Z,101958.88
2022-09-20T11:46:36.581Z,101977.44
2022-09-20T11:49:03.220Z,101972.44
2022-09-20T11:51:49.459Z,101974.91
2022-09-20T11:54:19.181Z,101966.34
2022-09-20T11:56:52.865Z,101967.44
2022-09-20T11:59:22.300Z,101971.31
2022-09-20T12:01:47.888Z,101969.66
2022-09-20T12:04:32.248Z,101973.84
2022-09-20T12:07:17.831Z,101969.13
2022-09-20T12:09:44.694Z,101969.66
2022-09-20T12:12:30.283Z,101960.50
2022-09-20T12:14:56.141Z,101963.28
2022-09-20T12:17:41.623Z,101966.59
2022-09-20T12:20:27.053Z,101967.72
2022-09-20T12:22:52.591Z,101971.91
2022-09-20T12:25:35.009Z,101977.75
2022-09-20T12:28:00.539Z,101967.50
2022-09-20T12:30:26.083Z,101972.44
2022-09-20T12:32:54.266Z,101971.91
2022-09-20T12:38:31.121Z,101964.97
2022-09-20T12:41:00.483Z,101960.56
2022-09-20T12:43:27.089Z,101970.78
2022-09-20T12:45:53.848Z,101966.66
2022-09-20T12:48:19.448Z,101961.72
2022-09-20T12:51:19.684Z,101961.13
2022-09-20T12:53:57.644Z,101961.13
2022-09-20T12:56:27.131Z,101955.06
2022-09-20T12:58:53.887Z,101958.94
2022-09-20T13:04:16.154Z,101950.38
2022-09-20T13:06:41.711Z,101947.03
2022-09-20T13:09:08.147Z,101948.16
2022-09-20T13:11:41.546Z,101950.09
2022-09-20T13:14:09.808Z,101952.03
2022-09-20T13:19:15.852Z,101962.00
2022-09-20T13:21:43.645Z,101953.16
2022-09-20T13:24:11.175Z,101946.22
2022-09-20T13:26:40.301Z,101955.06
2022-09-20T13:29:06.595Z,101957.59
2022-09-20T13:31:32.938Z,101956.75
2022-09-20T13:34:18.460Z,101946.50
2022-09-20T13:36:44.006Z,101959.78
2022-09-20T13:39:19.204Z,101942.81
2022-09-20T13:41:44.758Z,101951.13
2022-09-20T13:44:13.829Z,101942.22
2022-09-20T13:46:42.609Z,101942.56
2022-09-20T13:49:10.883Z,101932.91
2022-09-20T13:51:36.422Z,101941.09
2022-09-20T13:54:21.315Z,101938.38
2022-09-20T13:56:47.203Z,101940.03
2022-09-20T13:59:19.203Z,101935.63
2022-09-20T14:01:48.494Z,101933.44
2022-09-20T14:04:14.495Z,101932.31
2022-09-20T14:06:40.127Z,101930.66
2022-09-20T14:09:10.714Z,101928.72
2022-09-20T14:11:36.761Z,101928.72
2022-09-20T14:14:02.844Z,101927.88
2022-09-20T14:16:29.208Z,101933.75
2022-09-20T14:18:54.819Z,101927.59
2022-09-20T14:21:21.796Z,101931.22
2022-09-20T14:23:52.546Z,101929.53
2022-09-20T14:29:18.207Z,101930.69
2022-09-20T14:31:44.086Z,101931.22
2022-09-20T14:34:10.598Z,101924.56
2022-09-20T14:36:36.159Z,101916.28
2022-09-20T14:39:02.488Z,101925.44
2022-09-20T14:41:36.062Z,101916.00
2022-09-20T14:44:01.950Z,101915.69
2022-09-20T14:46:29.744Z,101916.84
2022-09-20T14:48:58.203Z,101913.56
2022-09-20T14:51:24.734Z,101913.03
2022-09-20T14:53:51.836Z,101920.22
2022-09-20T14:56:33.222Z,101917.75
2022-09-20T14:59:17.764Z,101920.22
2022-09-20T15:01:44.216Z,101919.63
2022-09-20T15:04:14.536Z,101925.75
2022-09-20T15:06:40.235Z,101922.97
2022-09-20T15:09:05.866Z,101915.19
2022-09-20T15:11:31.404Z,101924.88
2022-09-20T15:13:56.956Z,101914.66
2022-09-20T15:16:22.550Z,101912.72
2022-09-20T15:18:48.107Z,101921.03
2022-09-20T15:21:13.656Z,101922.69
2022-09-20T15:23:39.439Z,101928.22
2022-09-20T15:26:05.395Z,101928.72
2022-09-20T15:28:32.422Z,101925.94
2022-09-20T15:30:58.067Z,101930.66
2022-09-20T15:33:23.611Z,101931.47
2022-09-20T15:35:49.174Z,101919.00
2022-09-20T15:38:16.183Z,101928.97
2022-09-20T15:40:42.020Z,101931.47
2022-09-20T15:43:08.714Z,101923.75
2022-09-20T15:45:35.127Z,101922.06
2022-09-20T15:48:02.202Z,101916.22
2022-09-20T15:50:27.763Z,101928.97
2022-09-20T15:52:56.821Z,101925.38
2022-09-20T15:55:24.853Z,101930.66
2022-09-20T15:57:50.407Z,101931.47
2022-09-20T16:00:17.290Z,101930.66
2022-09-20T16:02:43.560Z,101931.22
2022-09-20T16:05:10.152Z,101932.59
2022-09-20T16:07:35.770Z,101935.09
2022-09-20T16:10:01.318Z,101932.31
2022-09-20T16:12:26.869Z,101934.50
2022-09-20T16:14:52.626Z,101932.03
2022-09-20T16:17:18.694Z,101941.16
2022-09-20T16:19:45.562Z,101938.38
2022-09-20T16:22:11.735Z,101938.38
2022-09-20T16:24:37.284Z,101939.22
2022-09-20T16:27:04.055Z,101942.56
2022-09-20T16:29:29.795Z,101957.22
2022-09-20T16:31:56.727Z,101953.63
2022-09-20T16:34:30.781Z,101943.38
2022-09-20T16:37:00.441Z,101958.34
2022-09-20T16:39:26.926Z,101946.41
2022-09-20T16:41:54.906Z,101954.47
2022-09-20T16:44:20.449Z,101953.34
2022-09-20T16:46:46.434Z,101950.88
2022-09-20T16:49:12.617Z,101955.28
2022-09-20T16:51:39.358Z,101952.81
2022-09-20T16:54:06.055Z,101954.72
2022-09-20T16:56:33.575Z,101959.44
2022-09-20T16:59:00.272Z,101963.31
2022-09-20T17:01:25.821Z,101957.75
2022-09-20T17:03:51.798Z,101963.03
2022-09-20T17:06:18.307Z,101964.97
2022-09-20T17:08:45.997Z,101968.56
2022-09-20T17:11:14.166Z,101965.53
2022-09-20T17:13:40.611Z,101964.72
2022-09-20T17:16:08.512Z,101974.97
2022-09-20T17:18:34.239Z,101973.84
2022-09-20T17:21:04.222Z,101977.97
2022-09-20T17:23:32.563Z,101973.28
2022-09-20T17:26:04.116Z,101986.88
2022-09-20T17:28:32.967Z,101986.88
2022-09-20T17:30:59.715Z,101981.34
2022-09-20T17:33:27.632Z,101985.19
2022-09-20T17:35:53.178Z,101991.59
2022-09-20T17:38:20.311Z,101990.72
2022-09-20T17:40:45.855Z,101994.59
2022-09-20T17:43:11.396Z,101997.38
2022-09-20T17:45:36.941Z,102008.22
2022-09-20T17:48:03.103Z,101999.91
2022-09-20T17:50:30.389Z,102003.19
2022-09-20T17:52:55.928Z,102001.25
2022-09-20T17:55:22.927Z,102002.91
2022-09-20T17:57:48.747Z,101999.03
2022-09-20T18:00:14.290Z,102006.81
2022-09-20T18:02:40.008Z,102012.88
2022-09-20T18:05:05.646Z,102016.78
2022-09-20T18:07:33.019Z,102013.44
2022-09-20T18:09:58.735Z,102015.94
2022-09-20T18:12:24.271Z,102020.66
2022-09-20T18:14:49.816Z,102027.84
2022-09-20T18:17:15.362Z,102025.91
2022-09-20T18:19:43.568Z,102023.13
2022-09-20T18:22:09.102Z,102033.16
2022-09-20T18:24:34.657Z,102028.97
2022-09-20T18:27:00.200Z,102033.41
2022-09-20T18:29:27.536Z,102035.34
2022-09-20T18:31:54.754Z,102042.53
2022-09-20T18:34:22.434Z,102041.47
2022-09-20T18:36:52.123Z,102044.47
2022-09-20T18:39:19.747Z,102041.72
2022-09-20T18:41:45.283Z,102045.31
2022-09-20T18:44:13.553Z,102049.47
2022-09-20T18:46:39.675Z,102053.91
2022-09-20T18:49:06.103Z,102049.47
2022-09-20T18:51:34.778Z,102054.72
2022-09-20T18:54:03.303Z,102048.88
2022-09-20T18:56:31.420Z,102052.25
2022-09-20T18:58:58.048Z,102055.00
2022-09-20T19:01:43.614Z,102069.69
2022-09-20T19:04:12.660Z,102057.78
2022-09-20T19:06:41.103Z,102058.03
2022-09-20T19:09:09.743Z,102062.72
2022-09-20T19:11:38.237Z,102059.44
2022-09-20T19:14:09.840Z,102060.78
2022-09-20T19:16:36.470Z,102064.97
2022-09-20T19:19:06.544Z,102066.91
2022-09-20T19:21:51.987Z,102067.75
2022-09-20T19:24:24.223Z,102079.34
2022-09-20T19:26:49.847Z,102080.19
2022-09-20T19:29:18.155Z,102082.44
2022-09-20T19:31:44.583Z,102081.00
2022-09-20T19:34:12.419Z,102086.00
2022-09-20T19:36:43.614Z,102086.84
2022-09-20T19:39:19.661Z,102085.72
2022-09-20T19:41:49.998Z,102093.19
2022-09-20T19:44:20.591Z,102092.09
2022-09-20T19:46:51.514Z,102093.19
2022-09-20T19:49:22.644Z,102099.84
2022-09-20T19:51:48.198Z,102097.09
2022-09-20T19:54:14.707Z,102101.78
2022-09-20T19:56:52.040Z,102098.75
2022-09-20T19:59:18.377Z,102107.34
2022-09-20T20:01:44.086Z,102107.06
2022-09-20T20:04:09.854Z,102104.28
2022-09-20T20:06:37.240Z,102113.19
2022-09-20T20:09:05.754Z,102112.59
2022-09-20T20:11:35.631Z,102114.53
2022-09-20T20:14:04.032Z,102122.84
2022-09-20T20:16:36.010Z,102125.34
2022-09-20T20:19:21.712Z,102129.22
2022-09-20T20:21:50.052Z,102126.44
2022-09-20T20:24:21.203Z,102132.00
2022-09-20T20:26:46.899Z,102130.03
2022-09-20T20:29:13.021Z,102129.22
2022-09-20T20:31:38.572Z,102129.50
2022-09-20T20:34:04.146Z,102131.16
2022-09-20T20:36:29.687Z,102130.59
2022-09-20T20:38:55.866Z,102134.50
2022-09-20T20:41:21.478Z,102136.69
2022-09-20T20:43:47.282Z,102133.09
2022-09-20T20:46:13.812Z,102143.91
2022-09-20T20:48:39.499Z,102140.84
2022-09-20T20:51:08.856Z,102144.44
2022-09-20T20:53:35.270Z,102146.38
2022-09-20T20:56:01.867Z,102153.31
2022-09-20T20:58:31.459Z,102146.66
2022-09-20T21:01:16.977Z,102152.22
2022-09-20T21:03:43.450Z,102145.84
2022-09-20T21:06:09.460Z,102153.59
2022-09-20T21:08:36.080Z,102152.75
2022-09-20T21:11:02.633Z,102151.06
2022-09-20T21:13:29.229Z,102158.31
2022-09-20T21:16:01.767Z,102159.38
2022-09-20T21:18:27.364Z,102157.47
2022-09-20T21:20:52.904Z,102160.25
2022-09-20T21:23:18.451Z,102162.75
2022-09-20T21:25:44.264Z,102165.78
2022-09-20T21:28:09.814Z,102166.84
2022-09-20T21:30:35.355Z,102177.94
2022-09-20T21:33:00.905Z,102173.22
2022-09-20T21:35:26.963Z,102170.75
2022-09-20T21:37:52.563Z,102180.72
2022-09-20T21:40:18.154Z,102182.66
2022-09-20T21:42:43.715Z,102179.88
2022-09-20T21:45:10.210Z,102184.31
2022-09-20T21:47:35.759Z,102178.78
2022-09-20T21:50:01.296Z,102186.25
2022-09-20T21:52:27.037Z,102185.41
2022-09-20T21:54:52.571Z,102190.13
2022-09-20T21:57:18.119Z,102194.25
2022-09-20T21:59:43.656Z,102190.97
2022-09-20T22:02:09.541Z,102185.69
2022-09-20T22:04:35.211Z,102192.06
2022-09-20T22:07:03.124Z,102190.97
2022-09-20T22:09:28.667Z,102189.03
2022-09-20T22:11:54.214Z,102181.81
2022-09-20T22:14:19.997Z,102190.13
2022-09-20T22:16:46.073Z,102186.53
2022-09-20T22:19:12.439Z,102187.09
2022-09-20T22:21:38.770Z,102187.34
2022-09-20T22:24:05.349Z,102182.66
2022-09-20T22:26:32.067Z,102189.28
2022-09-20T22:28:57.608Z,102179.31
2022-09-20T22:31:24.682Z,102188.47
2022-09-20T22:33:51.339Z,102186.53
2022-09-20T22:36:17.804Z,102184.59
2022-09-20T22:38:43.588Z,102186.53
2022-09-20T22:41:09.422Z,102187.34
2022-09-20T22:43:35.142Z,102181.25
2022-09-20T22:46:01.666Z,102187.63
2022-09-20T22:48:28.054Z,102174.84
2022-09-20T22:50:57.267Z,102183.75
2022-09-20T22:53:22.807Z,102184.88
2022-09-20T22:55:48.346Z,102182.09
2022-09-20T22:58:13.891Z,102188.72
2022-09-20T23:00:39.428Z,102185.94
2022-09-20T23:03:04.982Z,102193.16
2022-09-20T23:05:30.523Z,102194.25
2022-09-20T23:07:56.066Z,102191.47
2022-09-20T23:10:21.606Z,102192.34
2022-09-20T23:12:50.441Z,102192.34
2022-09-20T23:15:16.001Z,102188.47
2022-09-20T23:17:41.556Z,102191.22
2022-09-20T23:20:07.252Z,102191.47
2022-09-20T23:22:32.803Z,102192.34
2022-09-20T23:24:58.340Z,102189.56
2022-09-20T23:27:23.890Z,102188.72
2022-09-20T23:29:49.435Z,102190.66
2022-09-20T23:32:14.964Z,102190.66
2022-09-20T23:34:40.517Z,102193.41
2022-09-20T23:37:06.075Z,102195.13
2022-09-20T23:39:31.624Z,102196.47
2022-09-20T23:41:57.155Z,102196.19
2022-09-20T23:44:22.703Z,102194.53
2022-09-20T23:46:48.236Z,102194.53
2022-09-20T23:49:13.780Z,102193.41
2022-09-20T23:51:39.337Z,102194.78
2022-09-20T23:54:04.870Z,102192.03
2022-09-20T23:56:30.419Z,102188.16
2022-09-20T23:58:55.960Z,102187.31
